Darstellungsparameter: Aktuell verwendete Einstellungen:
Skalierung der Graphiken ... ?
xyx+y,   Skalierungsfaktor:      Skalierung: Modus: x, Faktor: 1
Darstellungszeitraum ... ?
Vom - - bis: - -   Zeitraum: 07.07.2022 - 07.07.2022
Min/Max/Avg-Anzeige ... ?
Zeige MMA aktuell
Zeige MMA Monat
Zeige MMA alles
Zeige --A aktuell
Zeige --A Monat
Zeige --A alles
Keine MMA-Anzeige
MMA:
Keine MMA-Graphiken
MMA-Basis: 07.07.2022 - 07.07.2022
Quicknavigation für Darstellung... ?
Tage:      1T, 2T, 3T, 5T -1T -2T -3T -5T +1T +2T +3T +5T
Wochen: 1W, 2W, 3W -1W -2W -3W +1W +2W +3W
Monate: 1M, 3M, 6M -1M -3M -6M +1M +3M +6M
Jahre:    1J, 3J, 5J, 10J -1J -3J -5J -10J +1J +3J +5J +10J
Nutze für die Darstellung ... ?
Originaldaten oder Mittelwerte auf ...
Stundenbasis Tagesbasis Wochenbasis
Monatsbasis Jahresbasis      Datenbasis: Original-Daten
Darstellen als:
Statistik (Auto) Statistik J:M      Darstellung:
Zur Graphik,    zurück zur Übersicht aller Sensoren.
 
Tabellarische Datenbersicht: ?
 
Sensor: Nr:Datum:Temp:Abs-Feuchte:Windchill:Wind:
Aussen-T/F 1 07-07-2022 02:00:00 15.6 C 9.84 g/m*3 15.6 C 8.1 km/h
2 07-07-2022 02:05:00 15.6 C 9.97 g/m*3 15.6 C 1.6 km/h
3 07-07-2022 02:10:00 15.6 C 9.97 g/m*3 15.6 C 3.2 km/h
4 07-07-2022 02:15:00 15.6 C 9.97 g/m*3 15.6 C 0 km/h
5 07-07-2022 02:20:00 15.6 C 9.97 g/m*3 15.6 C 1.6 km/h
6 07-07-2022 02:25:00 15.6 C 9.97 g/m*3 15.6 C 1.6 km/h
7 07-07-2022 02:30:00 15.6 C 9.97 g/m*3 15.6 C 3.2 km/h
8 07-07-2022 02:35:00 15.6 C 9.97 g/m*3 15.6 C 3.2 km/h
9 07-07-2022 02:40:00 15.6 C 9.97 g/m*3 15.6 C 8.1 km/h
10 07-07-2022 02:45:00 15.7 C 9.9 g/m*3 15.7 C 8.1 km/h
11 07-07-2022 02:50:00 15.7 C 9.9 g/m*3 15.7 C 9.7 km/h
12 07-07-2022 02:55:00 15.8 C 9.96 g/m*3 15.8 C 4.8 km/h
13 07-07-2022 03:00:00 15.8 C 9.96 g/m*3 15.8 C 3.2 km/h
14 07-07-2022 03:05:00 15.8 C 9.96 g/m*3 15.8 C 6.4 km/h
15 07-07-2022 03:10:00 15.8 C 9.96 g/m*3 15.8 C 6.4 km/h
16 07-07-2022 03:15:00 15.8 C 9.96 g/m*3 15.8 C 6.4 km/h
17 07-07-2022 03:20:00 15.8 C 9.96 g/m*3 15.8 C 4.8 km/h
18 07-07-2022 03:25:00 15.8 C 9.96 g/m*3 15.8 C 8.1 km/h
19 07-07-2022 03:30:00 15.8 C 9.96 g/m*3 15.8 C 9.7 km/h
20 07-07-2022 03:35:00 15.9 C 10.02 g/m*3 15.9 C 6.4 km/h
21 07-07-2022 03:40:00 15.8 C 9.96 g/m*3 15.8 C 1.6 km/h
22 07-07-2022 03:45:00 15.8 C 10.1 g/m*3 15.8 C 1.6 km/h
23 07-07-2022 03:50:00 15.7 C 10.03 g/m*3 15.7 C 4.8 km/h
24 07-07-2022 03:55:00 15.6 C 9.84 g/m*3 15.6 C 6.4 km/h
25 07-07-2022 04:00:00 15.6 C 9.97 g/m*3 15.6 C 4.8 km/h
Sensor: Nr:Datum:Temp:Abs-Feuchte:Windchill:Wind:
Aussen-T/F 26 07-07-2022 04:05:00 15.6 C 9.97 g/m*3 15.6 C 4.8 km/h
27 07-07-2022 04:10:00 15.6 C 9.97 g/m*3 15.6 C 4.8 km/h
28 07-07-2022 04:15:00 15.6 C 9.97 g/m*3 15.6 C 6.4 km/h
29 07-07-2022 04:20:00 15.6 C 9.97 g/m*3 15.6 C 4.8 km/h
30 07-07-2022 04:25:00 15.7 C 10.17 g/m*3 15.7 C 0 km/h
31 07-07-2022 04:30:00 15.7 C 10.03 g/m*3 15.7 C 3.2 km/h
32 07-07-2022 04:35:00 15.7 C 10.03 g/m*3 15.7 C 3.2 km/h
33 07-07-2022 04:40:00 15.8 C 10.1 g/m*3 15.8 C 3.2 km/h
34 07-07-2022 04:45:00 15.8 C 10.1 g/m*3 15.8 C 3.2 km/h
35 07-07-2022 04:50:00 15.8 C 10.23 g/m*3 15.8 C 0 km/h
36 07-07-2022 04:55:00 15.8 C 10.23 g/m*3 15.8 C 0 km/h
37 07-07-2022 05:00:00 15.7 C 10.17 g/m*3 15.7 C 3.2 km/h
38 07-07-2022 05:05:00 15.7 C 10.17 g/m*3 15.7 C 3.2 km/h
39 07-07-2022 05:10:00 15.7 C 10.3 g/m*3 15.7 C 0 km/h
40 07-07-2022 05:15:00 15.6 C 10.24 g/m*3 15.6 C 0 km/h
41 07-07-2022 05:20:00 15.6 C 10.37 g/m*3 15.6 C 0 km/h
42 07-07-2022 05:25:00 15.5 C 10.31 g/m*3 15.5 C 3.2 km/h
43 07-07-2022 05:30:00 15.5 C 10.31 g/m*3 15.5 C 1.6 km/h
44 07-07-2022 05:35:00 15.5 C 10.31 g/m*3 15.5 C 4.8 km/h
45 07-07-2022 05:40:00 15.6 C 10.37 g/m*3 15.6 C 4.8 km/h
46 07-07-2022 05:45:00 15.7 C 10.44 g/m*3 15.7 C 3.2 km/h
47 07-07-2022 05:50:00 15.7 C 10.44 g/m*3 15.7 C 6.4 km/h
48 07-07-2022 05:55:00 15.8 C 10.5 g/m*3 15.8 C 6.4 km/h
49 07-07-2022 06:00:00 15.9 C 10.56 g/m*3 15.9 C 4.8 km/h
50 07-07-2022 06:05:00 16.1 C 10.55 g/m*3 16.1 C 6.4 km/h
Sensor: Nr:Datum:Temp:Abs-Feuchte:Windchill:Wind:
Aussen-T/F 51 07-07-2022 06:10:00 16.3 C 10.68 g/m*3 16.3 C 6.4 km/h
52 07-07-2022 06:15:00 16.3 C 10.68 g/m*3 16.3 C 3.2 km/h
53 07-07-2022 06:20:00 16.4 C 10.75 g/m*3 16.4 C 8.1 km/h
54 07-07-2022 06:25:00 16.6 C 10.88 g/m*3 16.6 C 8.1 km/h
55 07-07-2022 06:30:00 16.7 C 10.94 g/m*3 16.7 C 9.7 km/h
56 07-07-2022 06:35:00 16.7 C 10.94 g/m*3 16.7 C 6.4 km/h
57 07-07-2022 06:40:00 16.8 C 11.01 g/m*3 16.8 C 11.3 km/h
58 07-07-2022 06:45:00 16.9 C 10.93 g/m*3 16.9 C 8.1 km/h
59 07-07-2022 06:50:00 16.9 C 10.93 g/m*3 16.9 C 14.5 km/h
60 07-07-2022 06:55:00 17.1 C 11.06 g/m*3 17.1 C 14.5 km/h
61 07-07-2022 07:00:00 17.1 C 11.06 g/m*3 17.1 C 9.7 km/h
62 07-07-2022 07:05:00 17.1 C 11.06 g/m*3 17.1 C 9.7 km/h
63 07-07-2022 07:10:00 17 C 10.85 g/m*3 17 C 9.7 km/h
64 07-07-2022 07:15:00 17 C 11 g/m*3 17 C 8.1 km/h
65 07-07-2022 07:20:00 16.9 C 10.93 g/m*3 16.9 C 6.4 km/h
66 07-07-2022 07:25:00 16.9 C 11.08 g/m*3 16.9 C 6.4 km/h
67 07-07-2022 07:30:00 16.9 C 11.08 g/m*3 16.9 C 4.8 km/h
68 07-07-2022 07:35:00 16.9 C 11.08 g/m*3 16.9 C 4.8 km/h
69 07-07-2022 07:40:00 16.9 C 11.22 g/m*3 16.9 C 4.8 km/h
70 07-07-2022 07:45:00 16.9 C 11.22 g/m*3 16.9 C 9.7 km/h
71 07-07-2022 07:50:00 16.9 C 11.22 g/m*3 16.9 C 8.1 km/h
72 07-07-2022 07:55:00 17 C 11.43 g/m*3 17 C 4.8 km/h
73 07-07-2022 08:00:00 17.1 C 11.35 g/m*3 17.1 C 4.8 km/h
74 07-07-2022 08:05:00 17.1 C 11.5 g/m*3 17.1 C 8.1 km/h
75 07-07-2022 08:10:00 17.2 C 11.57 g/m*3 17.2 C 8.1 km/h
Sensor: Nr:Datum:Temp:Abs-Feuchte:Windchill:Wind:
Aussen-T/F 76 07-07-2022 08:15:00 17.3 C 11.49 g/m*3 17.3 C 12.9 km/h
77 07-07-2022 08:20:00 17.5 C 11.63 g/m*3 17.5 C 9.7 km/h
78 07-07-2022 08:25:00 17.6 C 11.55 g/m*3 17.6 C 6.4 km/h
79 07-07-2022 08:30:00 17.7 C 11.62 g/m*3 17.7 C 8.1 km/h
80 07-07-2022 08:35:00 17.8 C 11.69 g/m*3 17.8 C 9.7 km/h
81 07-07-2022 08:40:00 17.8 C 11.69 g/m*3 17.8 C 8.1 km/h
82 07-07-2022 08:45:00 17.9 C 11.76 g/m*3 17.9 C 3.2 km/h
83 07-07-2022 08:50:00 17.9 C 11.91 g/m*3 17.9 C 9.7 km/h
84 07-07-2022 08:55:00 18 C 11.83 g/m*3 18 C 11.3 km/h
85 07-07-2022 09:00:00 18.2 C 11.97 g/m*3 18.2 C 14.5 km/h
86 07-07-2022 09:05:00 18.3 C 12.04 g/m*3 18.3 C 12.9 km/h
87 07-07-2022 09:10:00 18.6 C 12.26 g/m*3 18.6 C 11.3 km/h
88 07-07-2022 09:15:00 18.8 C 12.24 g/m*3 18.8 C 8.1 km/h
89 07-07-2022 09:20:00 19.1 C 12.29 g/m*3 19.1 C 12.9 km/h
90 07-07-2022 09:25:00 19.1 C 12.29 g/m*3 19.1 C 6.4 km/h
91 07-07-2022 09:30:00 19.1 C 12.29 g/m*3 19.1 C 16.1 km/h
92 07-07-2022 09:35:00 19.1 C 12.29 g/m*3 19.1 C 8.1 km/h
93 07-07-2022 09:40:00 19 C 12.39 g/m*3 19 C 9.7 km/h
94 07-07-2022 09:45:00 18.9 C 12.47 g/m*3 18.9 C 9.7 km/h
95 07-07-2022 09:50:00 18.7 C 12.33 g/m*3 18.7 C 12.9 km/h
96 07-07-2022 09:55:00 18.6 C 12.73 g/m*3 18.6 C 12.9 km/h
97 07-07-2022 10:00:00 18.4 C 12.9 g/m*3 18.4 C 9.7 km/h
98 07-07-2022 10:05:00 18.3 C 13.13 g/m*3 18.3 C 11.3 km/h
99 07-07-2022 10:10:00 18.2 C 13.21 g/m*3 18.2 C 12.9 km/h
100 07-07-2022 10:15:00 18.2 C 13.21 g/m*3 18.2 C 11.3 km/h
Sensor: Nr:Datum:Temp:Abs-Feuchte:Windchill:Wind:
Aussen-T/F 101 07-07-2022 10:20:00 18.2 C 12.9 g/m*3 18.2 C 17.7 km/h
102 07-07-2022 10:25:00 18.3 C 12.98 g/m*3 18.3 C 12.9 km/h
103 07-07-2022 10:30:00 18.3 C 12.98 g/m*3 18.3 C 8.1 km/h
104 07-07-2022 10:35:00 18.4 C 12.9 g/m*3 18.4 C 4.8 km/h
105 07-07-2022 10:40:00 18.4 C 12.74 g/m*3 18.4 C 6.4 km/h
106 07-07-2022 10:45:00 18.3 C 12.82 g/m*3 18.3 C 16.1 km/h
107 07-07-2022 10:50:00 18.1 C 12.82 g/m*3 18.1 C 14.5 km/h
108 07-07-2022 10:55:00 17.9 C 12.67 g/m*3 17.9 C 12.9 km/h
109 07-07-2022 11:00:00 17.8 C 12.75 g/m*3 17.8 C 24.1 km/h
110 07-07-2022 11:05:00 17.7 C 12.67 g/m*3 17.7 C 8.1 km/h
111 07-07-2022 11:10:00 17.8 C 12.9 g/m*3 17.8 C 11.3 km/h
112 07-07-2022 11:15:00 18 C 13.06 g/m*3 18 C 8.1 km/h
113 07-07-2022 11:20:00 18.1 C 12.82 g/m*3 18.1 C 9.7 km/h
114 07-07-2022 11:25:00 18.1 C 12.67 g/m*3 18.1 C 11.3 km/h
115 07-07-2022 11:30:00 18.1 C 12.67 g/m*3 18.1 C 14.5 km/h
116 07-07-2022 11:35:00 18.2 C 12.75 g/m*3 18.2 C 19.3 km/h
117 07-07-2022 11:40:00 18.4 C 12.9 g/m*3 18.4 C 19.3 km/h
118 07-07-2022 11:45:00 18.6 C 12.57 g/m*3 18.6 C 22.5 km/h
119 07-07-2022 11:50:00 18.7 C 12.65 g/m*3 18.7 C 11.3 km/h
120 07-07-2022 11:55:00 18.4 C 11.64 g/m*3 18.4 C 22.5 km/h
121 07-07-2022 12:00:00 18 C 11.52 g/m*3 18 C 16.1 km/h
122 07-07-2022 12:05:00 17.7 C 11.62 g/m*3 17.7 C 14.5 km/h
123 07-07-2022 12:10:00 17.3 C 11.64 g/m*3 17.3 C 11.3 km/h
124 07-07-2022 12:15:00 17.2 C 11.72 g/m*3 17.2 C 11.3 km/h
125 07-07-2022 12:20:00 17.1 C 11.65 g/m*3 17.1 C 11.3 km/h
Sensor: Nr:Datum:Temp:Abs-Feuchte:Windchill:Wind:
Aussen-T/F 126 07-07-2022 12:25:00 17.1 C 11.79 g/m*3 17.1 C 6.4 km/h
127 07-07-2022 12:30:00 17.2 C 11.72 g/m*3 17.2 C 12.9 km/h
128 07-07-2022 12:35:00 17.4 C 11.86 g/m*3 17.4 C 11.3 km/h
129 07-07-2022 12:40:00 17.6 C 12 g/m*3 17.6 C 16.1 km/h
130 07-07-2022 12:45:00 17.7 C 11.92 g/m*3 17.7 C 27.4 km/h
131 07-07-2022 12:50:00 17.7 C 11.92 g/m*3 17.7 C 14.5 km/h
132 07-07-2022 12:55:00 17.7 C 11.77 g/m*3 17.7 C 17.7 km/h
133 07-07-2022 13:00:00 17.7 C 11.77 g/m*3 17.7 C 11.3 km/h
134 07-07-2022 13:05:00 17.8 C 11.84 g/m*3 17.8 C 11.3 km/h
135 07-07-2022 13:10:00 18.1 C 11.9 g/m*3 18.1 C 14.5 km/h
136 07-07-2022 13:15:00 18.3 C 11.73 g/m*3 18.3 C 16.1 km/h
137 07-07-2022 13:20:00 18.6 C 12.1 g/m*3 18.6 C 14.5 km/h
138 07-07-2022 13:25:00 18.7 C 11.69 g/m*3 18.7 C 16.1 km/h
139 07-07-2022 13:30:00 18.7 C 11.85 g/m*3 18.7 C 12.9 km/h
140 07-07-2022 13:35:00 18.5 C 11.71 g/m*3 18.5 C 8.1 km/h
141 07-07-2022 13:40:00 18.4 C 11.8 g/m*3 18.4 C 11.3 km/h
142 07-07-2022 13:45:00 18.4 C 11.64 g/m*3 18.4 C 17.7 km/h
143 07-07-2022 13:50:00 18.4 C 11.8 g/m*3 18.4 C 9.7 km/h
144 07-07-2022 13:55:00 18.6 C 11.62 g/m*3 18.6 C 9.7 km/h
145 07-07-2022 14:00:00 18.9 C 11.99 g/m*3 18.9 C 11.3 km/h
146 07-07-2022 14:05:00 19.2 C 12.04 g/m*3 19.2 C 16.1 km/h
147 07-07-2022 14:10:00 19.6 C 12.15 g/m*3 19.6 C 11.3 km/h
148 07-07-2022 14:15:00 19.8 C 12.13 g/m*3 19.8 C 9.7 km/h
149 07-07-2022 14:20:00 19.9 C 11.85 g/m*3 19.9 C 14.5 km/h
150 07-07-2022 14:25:00 19.7 C 11.72 g/m*3 19.7 C 14.5 km/h
Sensor: Nr:Datum:Temp:Abs-Feuchte:Windchill:Wind:
Aussen-T/F 151 07-07-2022 14:30:00 19.4 C 11.68 g/m*3 19.4 C 16.1 km/h
152 07-07-2022 14:35:00 19.3 C 11.94 g/m*3 19.3 C 12.9 km/h
153 07-07-2022 14:40:00 19.2 C 11.87 g/m*3 19.2 C 17.7 km/h
154 07-07-2022 14:45:00 19.1 C 11.64 g/m*3 19.1 C 19.3 km/h
155 07-07-2022 14:50:00 19.1 C 11.97 g/m*3 19.1 C 6.4 km/h
156 07-07-2022 14:55:00 19.1 C 11.8 g/m*3 19.1 C 6.4 km/h
157 07-07-2022 15:00:00 19 C 11.73 g/m*3 19 C 12.9 km/h
158 07-07-2022 15:05:00 18.9 C 11.66 g/m*3 18.9 C 11.3 km/h
159 07-07-2022 15:10:00 18.8 C 11.6 g/m*3 18.8 C 11.3 km/h
160 07-07-2022 15:15:00 18.7 C 11.53 g/m*3 18.7 C 16.1 km/h
161 07-07-2022 15:20:00 18.6 C 11.62 g/m*3 18.6 C 19.3 km/h
162 07-07-2022 15:25:00 18.4 C 11.48 g/m*3 18.4 C 16.1 km/h
163 07-07-2022 15:30:00 18.3 C 11.57 g/m*3 18.3 C 16.1 km/h
164 07-07-2022 15:35:00 18.2 C 11.5 g/m*3 18.2 C 9.7 km/h
165 07-07-2022 15:40:00 18.2 C 11.66 g/m*3 18.2 C 8.1 km/h
166 07-07-2022 15:45:00 18.3 C 11.73 g/m*3 18.3 C 9.7 km/h
167 07-07-2022 15:50:00 18.4 C 11.8 g/m*3 18.4 C 9.7 km/h
168 07-07-2022 15:55:00 18.5 C 11.71 g/m*3 18.5 C 12.9 km/h
169 07-07-2022 16:00:00 18.6 C 11.78 g/m*3 18.6 C 11.3 km/h
170 07-07-2022 16:05:00 18.5 C 11.71 g/m*3 18.5 C 9.7 km/h
171 07-07-2022 16:10:00 18.4 C 11.8 g/m*3 18.4 C 11.3 km/h
172 07-07-2022 16:15:00 18.3 C 11.88 g/m*3 18.3 C 14.5 km/h
173 07-07-2022 16:20:00 18.3 C 11.88 g/m*3 18.3 C 4.8 km/h
174 07-07-2022 16:25:00 18.3 C 11.88 g/m*3 18.3 C 4.8 km/h
175 07-07-2022 16:30:00 18.3 C 11.88 g/m*3 18.3 C 6.4 km/h
Sensor: Nr:Datum:Temp:Abs-Feuchte:Windchill:Wind:
Aussen-T/F 176 07-07-2022 16:35:00 18.3 C 11.88 g/m*3 18.3 C 9.7 km/h
177 07-07-2022 16:40:00 18.4 C 11.8 g/m*3 18.4 C 12.9 km/h
178 07-07-2022 16:45:00 18.6 C 12.1 g/m*3 18.6 C 8.1 km/h
179 07-07-2022 16:50:00 18.7 C 12.17 g/m*3 18.7 C 6.4 km/h
180 07-07-2022 16:55:00 18.9 C 11.99 g/m*3 18.9 C 9.7 km/h
181 07-07-2022 17:00:00 18.9 C 11.83 g/m*3 18.9 C 12.9 km/h
182 07-07-2022 17:05:00 18.8 C 11.76 g/m*3 18.8 C 19.3 km/h
183 07-07-2022 17:10:00 18.8 C 11.76 g/m*3 18.8 C 11.3 km/h
184 07-07-2022 17:15:00 18.8 C 11.92 g/m*3 18.8 C 11.3 km/h
185 07-07-2022 17:20:00 18.9 C 11.99 g/m*3 18.9 C 17.7 km/h
186 07-07-2022 17:25:00 18.8 C 12.08 g/m*3 18.8 C 20.9 km/h
187 07-07-2022 17:30:00 18.8 C 12.08 g/m*3 18.8 C 20.9 km/h
188 07-07-2022 17:35:00 18.8 C 12.24 g/m*3 18.8 C 14.5 km/h
189 07-07-2022 17:40:00 18.9 C 12.31 g/m*3 18.9 C 9.7 km/h
190 07-07-2022 17:45:00 19.1 C 12.29 g/m*3 19.1 C 14.5 km/h
191 07-07-2022 17:50:00 19.2 C 12.37 g/m*3 19.2 C 12.9 km/h
192 07-07-2022 17:55:00 19.2 C 12.37 g/m*3 19.2 C 11.3 km/h
193 07-07-2022 18:00:00 19.2 C 12.37 g/m*3 19.2 C 12.9 km/h
194 07-07-2022 18:05:00 19.2 C 12.37 g/m*3 19.2 C 12.9 km/h
195 07-07-2022 18:10:00 19.2 C 12.53 g/m*3 19.2 C 14.5 km/h
196 07-07-2022 18:15:00 19.2 C 12.37 g/m*3 19.2 C 14.5 km/h
197 07-07-2022 18:20:00 19.3 C 12.44 g/m*3 19.3 C 16.1 km/h
198 07-07-2022 18:25:00 19.3 C 12.44 g/m*3 19.3 C 9.7 km/h
199 07-07-2022 18:30:00 19.3 C 12.44 g/m*3 19.3 C 9.7 km/h
200 07-07-2022 18:35:00 19.3 C 12.44 g/m*3 19.3 C 9.7 km/h
Sensor: Nr:Datum:Temp:Abs-Feuchte:Windchill:Wind:
Aussen-T/F 201 07-07-2022 18:40:00 19.2 C 12.2 g/m*3 19.2 C 12.9 km/h
202 07-07-2022 18:45:00 19.2 C 12.37 g/m*3 19.2 C 12.9 km/h
203 07-07-2022 18:50:00 19.1 C 12.13 g/m*3 19.1 C 9.7 km/h
204 07-07-2022 18:55:00 19.1 C 12.29 g/m*3 19.1 C 8.1 km/h
205 07-07-2022 19:00:00 19.2 C 12.2 g/m*3 19.2 C 8.1 km/h

Legende:
   Min
   Max


Maximal/Minimal-Werte vom 07.07.2022 - 07.07.2022

Sensor Min Max Avg
Temp
(Aussen-T/F)
15.5 °C
07-07-2022  05:25:00
19.9 °C
07-07-2022  14:20:00
17.62 °C
Abs-Feuchte
(Aussen-T/F)
9.84 g/m*3
07-07-2022  02:00:00
13.21 g/m*3
07-07-2022  10:10:00
11.43 g/m*3
Windchill
(Aussen-T/F)
15.5 C
07-07-2022  05:25:00
19.9 C
07-07-2022  14:20:00
17.53 C

Die Daten stammen von einer Davis Vantage Pro 2 Wetter-Station und werden unter Linux mit der Software wview2wettercgi und aufbereitet. Alle Angaben erfolgen ohne Gewähr für ihre Vollständigkeit oder Richtigkeit.
Kontakt: Rainer Krienke krienke@uni-koblenz.de . Meine Webseiten an der Uni Koblenz oder privat.
Version: $Revision: 0.78 $